sensor_id;sensor_type;location;lat;lon;timestamp;temperature;humidity
12438;DHT22;6283;51.330;12.374;2022-10-17T00:00:34;16.10;1.00
12438;DHT22;6283;51.330;12.374;2022-10-17T00:03:00;16.10;1.00
12438;DHT22;6283;51.330;12.374;2022-10-17T00:05:26;16.00;1.00
12438;DHT22;6283;51.330;12.374;2022-10-17T00:07:52;16.30;1.00
12438;DHT22;6283;51.330;12.374;2022-10-17T00:10:19;16.10;1.00
12438;DHT22;6283;51.330;12.374;2022-10-17T00:12:44;16.20;1.00
12438;DHT22;6283;51.330;12.374;2022-10-17T00:15:15;16.10;1.00
12438;DHT22;6283;51.330;12.374;2022-10-17T00:17:41;16.20;1.00
12438;DHT22;6283;51.330;12.374;2022-10-17T00:20:06;16.30;1.00
12438;DHT22;6283;51.330;12.374;2022-10-17T00:22:32;16.20;1.00
12438;DHT22;6283;51.330;12.374;2022-10-17T00:24:58;16.30;1.00
12438;DHT22;6283;51.330;12.374;2022-10-17T00:27:23;16.20;1.00
12438;DHT22;6283;51.330;12.374;2022-10-17T00:29:50;16.20;1.00
12438;DHT22;6283;51.330;12.374;2022-10-17T00:32:17;16.30;1.00
12438;DHT22;6283;51.330;12.374;2022-10-17T00:34:43;16.30;1.00
12438;DHT22;6283;51.330;12.374;2022-10-17T00:37:09;16.50;1.00
12438;DHT22;6283;51.330;12.374;2022-10-17T00:39:34;16.40;1.00
12438;DHT22;6283;51.330;12.374;2022-10-17T00:42:00;16.40;1.00
12438;DHT22;6283;51.330;12.374;2022-10-17T00:47:05;16.50;1.00
12438;DHT22;6283;51.330;12.374;2022-10-17T00:49:33;16.50;1.00
12438;DHT22;6283;51.330;12.374;2022-10-17T00:52:03;16.30;1.00
12438;DHT22;6283;51.330;12.374;2022-10-17T00:54:32;16.30;1.00
12438;DHT22;6283;51.330;12.374;2022-10-17T00:56:59;16.40;1.00
12438;DHT22;6283;51.330;12.374;2022-10-17T00:59:26;16.30;1.00
12438;DHT22;6283;51.330;12.374;2022-10-17T01:02:08;16.30;1.00
12438;DHT22;6283;51.330;12.374;2022-10-17T01:04:35;16.40;1.00
12438;DHT22;6283;51.330;12.374;2022-10-17T01:07:01;16.20;1.00
12438;DHT22;6283;51.330;12.374;2022-10-17T01:09:27;16.20;1.00
12438;DHT22;6283;51.330;12.374;2022-10-17T01:15:11;16.10;1.00
12438;DHT22;6283;51.330;12.374;2022-10-17T01:20:58;15.90;1.00
12438;DHT22;6283;51.330;12.374;2022-10-17T01:26:54;16.20;1.00
12438;DHT22;6283;51.330;12.374;2022-10-17T01:29:33;15.90;1.00
12438;DHT22;6283;51.330;12.374;2022-10-17T01:32:16;15.90;1.00
12438;DHT22;6283;51.330;12.374;2022-10-17T01:34:59;16.00;1.00
12438;DHT22;6283;51.330;12.374;2022-10-17T01:37:33;15.70;1.00
12438;DHT22;6283;51.330;12.374;2022-10-17T01:40:06;15.80;1.00
12438;DHT22;6283;51.330;12.374;2022-10-17T01:45:15;15.80;1.00
12438;DHT22;6283;51.330;12.374;2022-10-17T01:47:46;16.00;1.00
12438;DHT22;6283;51.330;12.374;2022-10-17T01:50:18;15.90;1.00
12438;DHT22;6283;51.330;12.374;2022-10-17T01:52:52;15.90;1.00
12438;DHT22;6283;51.330;12.374;2022-10-17T01:55:23;16.00;1.00
12438;DHT22;6283;51.330;12.374;2022-10-17T01:57:56;15.80;1.00
12438;DHT22;6283;51.330;12.374;2022-10-17T02:00:26;15.90;1.00
12438;DHT22;6283;51.330;12.374;2022-10-17T02:02:56;15.90;1.00
12438;DHT22;6283;51.330;12.374;2022-10-17T02:05:27;16.10;1.00
12438;DHT22;6283;51.330;12.374;2022-10-17T02:07:53;16.00;1.00
12438;DHT22;6283;51.330;12.374;2022-10-17T02:10:35;16.00;1.00
12438;DHT22;6283;51.330;12.374;2022-10-17T02:18:43;16.10;1.00
12438;DHT22;6283;51.330;12.374;2022-10-17T02:29:30;16.20;1.00
12438;DHT22;6283;51.330;12.374;2022-10-17T02:32:11;16.20;1.00
12438;DHT22;6283;51.330;12.374;2022-10-17T02:34:51;16.30;1.00
12438;DHT22;6283;51.330;12.374;2022-10-17T02:37:23;16.20;1.00
12438;DHT22;6283;51.330;12.374;2022-10-17T02:39:50;16.00;1.00
12438;DHT22;6283;51.330;12.374;2022-10-17T02:42:17;16.30;1.00
12438;DHT22;6283;51.330;12.374;2022-10-17T02:44:44;16.30;1.00
12438;DHT22;6283;51.330;12.374;2022-10-17T02:47:22;16.30;1.00
12438;DHT22;6283;51.330;12.374;2022-10-17T02:49:52;16.40;1.00
12438;DHT22;6283;51.330;12.374;2022-10-17T02:52:35;16.40;1.00
12438;DHT22;6283;51.330;12.374;2022-10-17T02:55:23;16.20;1.00
12438;DHT22;6283;51.330;12.374;2022-10-17T02:57:56;16.20;1.00
12438;DHT22;6283;51.330;12.374;2022-10-17T03:00:24;16.30;1.00
12438;DHT22;6283;51.330;12.374;2022-10-17T03:02:52;16.20;1.00
12438;DHT22;6283;51.330;12.374;2022-10-17T03:05:22;16.20;1.00
12438;DHT22;6283;51.330;12.374;2022-10-17T03:07:48;16.10;1.00
12438;DHT22;6283;51.330;12.374;2022-10-17T03:10:14;15.90;1.00
12438;DHT22;6283;51.330;12.374;2022-10-17T03:12:40;16.20;1.00
12438;DHT22;6283;51.330;12.374;2022-10-17T03:15:06;16.20;1.00
12438;DHT22;6283;51.330;12.374;2022-10-17T03:17:32;16.40;1.00
12438;DHT22;6283;51.330;12.374;2022-10-17T03:19:57;16.10;1.00
12438;DHT22;6283;51.330;12.374;2022-10-17T03:22:23;16.10;1.00
12438;DHT22;6283;51.330;12.374;2022-10-17T03:24:48;16.20;1.00
12438;DHT22;6283;51.330;12.374;2022-10-17T03:27:14;16.00;1.00
12438;DHT22;6283;51.330;12.374;2022-10-17T03:29:40;16.10;1.00
12438;DHT22;6283;51.330;12.374;2022-10-17T03:32:05;16.10;1.00
12438;DHT22;6283;51.330;12.374;2022-10-17T03:34:31;16.00;1.00
12438;DHT22;6283;51.330;12.374;2022-10-17T03:36:57;16.20;1.00
12438;DHT22;6283;51.330;12.374;2022-10-17T03:39:22;16.30;1.00
12438;DHT22;6283;51.330;12.374;2022-10-17T03:41:48;16.10;1.00
12438;DHT22;6283;51.330;12.374;2022-10-17T03:44:14;15.90;1.00
12438;DHT22;6283;51.330;12.374;2022-10-17T03:46:39;16.20;1.00
12438;DHT22;6283;51.330;12.374;2022-10-17T03:49:05;16.10;1.00
12438;DHT22;6283;51.330;12.374;2022-10-17T03:51:32;16.10;1.00
12438;DHT22;6283;51.330;12.374;2022-10-17T03:53:59;16.10;1.00
12438;DHT22;6283;51.330;12.374;2022-10-17T03:56:25;16.10;1.00
12438;DHT22;6283;51.330;12.374;2022-10-17T03:58:50;16.10;1.00
12438;DHT22;6283;51.330;12.374;2022-10-17T04:01:17;16.20;1.00
12438;DHT22;6283;51.330;12.374;2022-10-17T04:03:43;16.20;1.00
12438;DHT22;6283;51.330;12.374;2022-10-17T04:06:12;16.00;1.00
12438;DHT22;6283;51.330;12.374;2022-10-17T04:08:39;16.20;1.00
12438;DHT22;6283;51.330;12.374;2022-10-17T04:11:07;15.90;1.00
12438;DHT22;6283;51.330;12.374;2022-10-17T04:13:33;16.00;1.00
12438;DHT22;6283;51.330;12.374;2022-10-17T04:16:12;15.90;1.00
12438;DHT22;6283;51.330;12.374;2022-10-17T04:18:38;16.00;1.00
12438;DHT22;6283;51.330;12.374;2022-10-17T04:21:05;16.00;1.00
12438;DHT22;6283;51.330;12.374;2022-10-17T04:23:32;16.00;1.00
12438;DHT22;6283;51.330;12.374;2022-10-17T04:25:59;16.00;1.00
12438;DHT22;6283;51.330;12.374;2022-10-17T04:28:26;16.20;1.00
12438;DHT22;6283;51.330;12.374;2022-10-17T04:30:59;16.00;1.00
12438;DHT22;6283;51.330;12.374;2022-10-17T04:33:25;16.20;1.00
12438;DHT22;6283;51.330;12.374;2022-10-17T04:36:04;16.00;1.00
12438;DHT22;6283;51.330;12.374;2022-10-17T04:38:31;15.90;1.00
12438;DHT22;6283;51.330;12.374;2022-10-17T04:41:00;15.90;1.00
12438;DHT22;6283;51.330;12.374;2022-10-17T04:43:28;16.10;1.00
12438;DHT22;6283;51.330;12.374;2022-10-17T04:45:54;16.00;1.00
12438;DHT22;6283;51.330;12.374;2022-10-17T04:48:21;15.90;1.00
12438;DHT22;6283;51.330;12.374;2022-10-17T04:51:07;16.00;1.00
12438;DHT22;6283;51.330;12.374;2022-10-17T04:53:34;15.90;1.00
12438;DHT22;6283;51.330;12.374;2022-10-17T04:56:00;15.90;1.00
12438;DHT22;6283;51.330;12.374;2022-10-17T04:58:29;15.90;1.00
12438;DHT22;6283;51.330;12.374;2022-10-17T05:00:55;16.00;1.00
12438;DHT22;6283;51.330;12.374;2022-10-17T05:03:20;15.80;1.00
12438;DHT22;6283;51.330;12.374;2022-10-17T05:05:46;15.80;1.00
12438;DHT22;6283;51.330;12.374;2022-10-17T05:08:11;15.80;1.00
12438;DHT22;6283;51.330;12.374;2022-10-17T05:10:39;15.70;1.00
12438;DHT22;6283;51.330;12.374;2022-10-17T05:13:05;15.60;1.00
12438;DHT22;6283;51.330;12.374;2022-10-17T05:15:30;15.90;1.00
12438;DHT22;6283;51.330;12.374;2022-10-17T05:17:56;15.80;1.00
12438;DHT22;6283;51.330;12.374;2022-10-17T05:20:22;15.70;1.00
12438;DHT22;6283;51.330;12.374;2022-10-17T05:22:48;15.90;1.00
12438;DHT22;6283;51.330;12.374;2022-10-17T05:25:14;15.60;1.00
12438;DHT22;6283;51.330;12.374;2022-10-17T05:27:39;15.60;1.00
12438;DHT22;6283;51.330;12.374;2022-10-17T05:30:05;15.80;1.00
12438;DHT22;6283;51.330;12.374;2022-10-17T05:32:31;15.80;1.00
12438;DHT22;6283;51.330;12.374;2022-10-17T05:34:57;15.60;1.00
12438;DHT22;6283;51.330;12.374;2022-10-17T05:37:22;15.80;1.00
12438;DHT22;6283;51.330;12.374;2022-10-17T05:39:48;15.70;1.00
12438;DHT22;6283;51.330;12.374;2022-10-17T05:42:13;15.60;1.00
12438;DHT22;6283;51.330;12.374;2022-10-17T05:44:39;15.90;1.00
12438;DHT22;6283;51.330;12.374;2022-10-17T05:47:06;15.80;1.00
12438;DHT22;6283;51.330;12.374;2022-10-17T05:49:32;15.90;1.00
12438;DHT22;6283;51.330;12.374;2022-10-17T05:51:57;15.60;1.00
12438;DHT22;6283;51.330;12.374;2022-10-17T05:54:23;15.60;1.00
12438;DHT22;6283;51.330;12.374;2022-10-17T05:56:53;15.70;1.00
12438;DHT22;6283;51.330;12.374;2022-10-17T05:59:19;15.60;1.00
12438;DHT22;6283;51.330;12.374;2022-10-17T06:01:44;15.70;1.00
12438;DHT22;6283;51.330;12.374;2022-10-17T06:04:10;15.70;1.00
12438;DHT22;6283;51.330;12.374;2022-10-17T06:06:37;15.70;1.00
12438;DHT22;6283;51.330;12.374;2022-10-17T06:09:03;15.90;1.00
12438;DHT22;6283;51.330;12.374;2022-10-17T06:11:29;15.80;1.00
12438;DHT22;6283;51.330;12.374;2022-10-17T06:13:55;15.70;1.00
12438;DHT22;6283;51.330;12.374;2022-10-17T06:16:21;15.90;1.00
12438;DHT22;6283;51.330;12.374;2022-10-17T06:18:46;15.80;1.00
12438;DHT22;6283;51.330;12.374;2022-10-17T06:21:14;15.90;1.00
12438;DHT22;6283;51.330;12.374;2022-10-17T06:23:41;15.80;1.00
12438;DHT22;6283;51.330;12.374;2022-10-17T06:26:07;15.80;1.00
12438;DHT22;6283;51.330;12.374;2022-10-17T06:28:33;15.90;1.00
12438;DHT22;6283;51.330;12.374;2022-10-17T06:31:10;16.10;1.00
12438;DHT22;6283;51.330;12.374;2022-10-17T06:33:36;15.90;1.00
12438;DHT22;6283;51.330;12.374;2022-10-17T06:36:03;16.00;1.00
12438;DHT22;6283;51.330;12.374;2022-10-17T06:38:29;16.10;1.00
12438;DHT22;6283;51.330;12.374;2022-10-17T06:41:09;16.10;1.00
12438;DHT22;6283;51.330;12.374;2022-10-17T06:43:36;16.20;1.00
12438;DHT22;6283;51.330;12.374;2022-10-17T06:46:02;16.20;1.00
12438;DHT22;6283;51.330;12.374;2022-10-17T06:48:28;16.20;1.00
12438;DHT22;6283;51.330;12.374;2022-10-17T06:50:58;16.20;1.00
12438;DHT22;6283;51.330;12.374;2022-10-17T06:53:29;16.40;1.00
12438;DHT22;6283;51.330;12.374;2022-10-17T06:55:55;16.30;1.00
12438;DHT22;6283;51.330;12.374;2022-10-17T06:58:26;16.30;1.00
12438;DHT22;6283;51.330;12.374;2022-10-17T07:00:56;16.50;1.00
12438;DHT22;6283;51.330;12.374;2022-10-17T07:03:22;16.50;1.00
12438;DHT22;6283;51.330;12.374;2022-10-17T07:05:51;16.50;1.00
12438;DHT22;6283;51.330;12.374;2022-10-17T07:08:17;16.60;1.00
12438;DHT22;6283;51.330;12.374;2022-10-17T07:10:42;16.70;1.00
12438;DHT22;6283;51.330;12.374;2022-10-17T07:13:08;16.70;1.00
12438;DHT22;6283;51.330;12.374;2022-10-17T07:15:33;16.80;1.00
12438;DHT22;6283;51.330;12.374;2022-10-17T07:17:59;16.80;1.00
12438;DHT22;6283;51.330;12.374;2022-10-17T07:20:25;16.90;1.00
12438;DHT22;6283;51.330;12.374;2022-10-17T07:22:50;16.90;1.00
12438;DHT22;6283;51.330;12.374;2022-10-17T07:25:16;17.00;1.00
12438;DHT22;6283;51.330;12.374;2022-10-17T07:27:41;17.10;1.00
12438;DHT22;6283;51.330;12.374;2022-10-17T07:30:07;17.10;1.00
12438;DHT22;6283;51.330;12.374;2022-10-17T07:32:33;17.20;1.00
12438;DHT22;6283;51.330;12.374;2022-10-17T07:34:59;17.30;1.00
12438;DHT22;6283;51.330;12.374;2022-10-17T07:37:24;17.40;1.00
12438;DHT22;6283;51.330;12.374;2022-10-17T07:39:50;17.40;1.00
12438;DHT22;6283;51.330;12.374;2022-10-17T07:42:15;17.50;1.00
12438;DHT22;6283;51.330;12.374;2022-10-17T07:44:41;17.60;1.00
12438;DHT22;6283;51.330;12.374;2022-10-17T07:47:07;17.60;1.00
12438;DHT22;6283;51.330;12.374;2022-10-17T07:49:32;17.80;1.00
12438;DHT22;6283;51.330;12.374;2022-10-17T07:51:58;17.80;1.00
12438;DHT22;6283;51.330;12.374;2022-10-17T07:54:23;17.90;1.00
12438;DHT22;6283;51.330;12.374;2022-10-17T07:56:49;17.90;1.00
12438;DHT22;6283;51.330;12.374;2022-10-17T07:59:18;18.00;1.00
12438;DHT22;6283;51.330;12.374;2022-10-17T08:01:43;18.00;1.00
12438;DHT22;6283;51.330;12.374;2022-10-17T08:04:09;18.00;1.00
12438;DHT22;6283;51.330;12.374;2022-10-17T08:06:34;18.10;1.00
12438;DHT22;6283;51.330;12.374;2022-10-17T08:09:00;18.10;1.00
12438;DHT22;6283;51.330;12.374;2022-10-17T08:11:26;18.10;1.00
12438;DHT22;6283;51.330;12.374;2022-10-17T08:13:52;18.10;1.00
12438;DHT22;6283;51.330;12.374;2022-10-17T08:16:17;18.10;1.00
12438;DHT22;6283;51.330;12.374;2022-10-17T08:18:43;18.10;1.00
12438;DHT22;6283;51.330;12.374;2022-10-17T08:21:10;18.10;1.00
12438;DHT22;6283;51.330;12.374;2022-10-17T08:23:37;18.10;1.00
12438;DHT22;6283;51.330;12.374;2022-10-17T08:26:04;18.20;1.00
12438;DHT22;6283;51.330;12.374;2022-10-17T08:28:33;18.20;1.00
12438;DHT22;6283;51.330;12.374;2022-10-17T08:31:08;18.20;1.00
12438;DHT22;6283;51.330;12.374;2022-10-17T08:33:34;18.30;1.00
12438;DHT22;6283;51.330;12.374;2022-10-17T08:36:01;18.30;1.00
12438;DHT22;6283;51.330;12.374;2022-10-17T08:38:31;18.40;1.00
12438;DHT22;6283;51.330;12.374;2022-10-17T08:41:00;18.50;1.00
12438;DHT22;6283;51.330;12.374;2022-10-17T08:43:42;18.70;1.00
12438;DHT22;6283;51.330;12.374;2022-10-17T08:46:09;18.70;1.00
12438;DHT22;6283;51.330;12.374;2022-10-17T08:48:42;18.90;1.00
12438;DHT22;6283;51.330;12.374;2022-10-17T08:54:12;19.20;1.00
12438;DHT22;6283;51.330;12.374;2022-10-17T08:56:42;19.30;1.00
12438;DHT22;6283;51.330;12.374;2022-10-17T08:59:20;19.50;1.00
12438;DHT22;6283;51.330;12.374;2022-10-17T09:01:58;19.60;1.00
12438;DHT22;6283;51.330;12.374;2022-10-17T09:18:26;20.10;1.00
12438;DHT22;6283;51.330;12.374;2022-10-17T09:20:55;20.20;1.00
12438;DHT22;6283;51.330;12.374;2022-10-17T09:23:25;20.20;1.00
12438;DHT22;6283;51.330;12.374;2022-10-17T09:25:54;20.20;1.00
12438;DHT22;6283;51.330;12.374;2022-10-17T09:33:40;20.40;1.00
12438;DHT22;6283;51.330;12.374;2022-10-17T09:36:15;20.50;1.00
12438;DHT22;6283;51.330;12.374;2022-10-17T09:38:50;20.70;1.00
12438;DHT22;6283;51.330;12.374;2022-10-17T09:41:52;20.80;1.00
12438;DHT22;6283;51.330;12.374;2022-10-17T09:44:20;20.90;1.00
12438;DHT22;6283;51.330;12.374;2022-10-17T09:49:42;21.20;1.00
12438;DHT22;6283;51.330;12.374;2022-10-17T09:52:17;21.30;1.00
12438;DHT22;6283;51.330;12.374;2022-10-17T09:54:51;21.40;1.00
12438;DHT22;6283;51.330;12.374;2022-10-17T09:57:18;21.60;1.00
12438;DHT22;6283;51.330;12.374;2022-10-17T09:59:46;21.70;1.00
12438;DHT22;6283;51.330;12.374;2022-10-17T10:05:03;21.90;1.00
12438;DHT22;6283;51.330;12.374;2022-10-17T10:07:31;22.10;1.00
12438;DHT22;6283;51.330;12.374;2022-10-17T10:09:58;22.20;1.00
12438;DHT22;6283;51.330;12.374;2022-10-17T10:12:30;22.30;1.00
12438;DHT22;6283;51.330;12.374;2022-10-17T10:14:56;22.40;1.00
12438;DHT22;6283;51.330;12.374;2022-10-17T10:17:34;22.50;1.00
12438;DHT22;6283;51.330;12.374;2022-10-17T10:20:01;22.60;1.00
12438;DHT22;6283;51.330;12.374;2022-10-17T10:22:27;22.80;1.00
12438;DHT22;6283;51.330;12.374;2022-10-17T10:25:25;22.90;1.00
12438;DHT22;6283;51.330;12.374;2022-10-17T10:27:51;23.10;1.00
12438;DHT22;6283;51.330;12.374;2022-10-17T10:30:24;23.20;1.00
12438;DHT22;6283;51.330;12.374;2022-10-17T10:32:52;23.40;1.00
12438;DHT22;6283;51.330;12.374;2022-10-17T10:35:23;23.50;1.00
12438;DHT22;6283;51.330;12.374;2022-10-17T10:37:57;23.70;1.00
12438;DHT22;6283;51.330;12.374;2022-10-17T10:40:28;23.80;1.00
12438;DHT22;6283;51.330;12.374;2022-10-17T10:42:57;23.90;1.00
12438;DHT22;6283;51.330;12.374;2022-10-17T10:48:19;24.00;1.00
12438;DHT22;6283;51.330;12.374;2022-10-17T10:51:04;24.00;1.00
12438;DHT22;6283;51.330;12.374;2022-10-17T11:06:57;24.50;1.00
12438;DHT22;6283;51.330;12.374;2022-10-17T11:12:20;24.70;1.00
12438;DHT22;6283;51.330;12.374;2022-10-17T11:15:06;24.80;1.00
12438;DHT22;6283;51.330;12.374;2022-10-17T11:17:46;25.00;1.00
12438;DHT22;6283;51.330;12.374;2022-10-17T11:25:44;25.30;1.00
12438;DHT22;6283;51.330;12.374;2022-10-17T11:28:18;25.30;1.00
12438;DHT22;6283;51.330;12.374;2022-10-17T11:31:12;25.30;1.00
12438;DHT22;6283;51.330;12.374;2022-10-17T11:34:02;25.40;1.00
12438;DHT22;6283;51.330;12.374;2022-10-17T11:36:33;25.50;1.00
12438;DHT22;6283;51.330;12.374;2022-10-17T11:39:22;25.60;1.00
12438;DHT22;6283;51.330;12.374;2022-10-17T11:41:56;25.70;1.00
12438;DHT22;6283;51.330;12.374;2022-10-17T11:44:39;25.90;1.00
12438;DHT22;6283;51.330;12.374;2022-10-17T11:47:13;26.00;1.00
12438;DHT22;6283;51.330;12.374;2022-10-17T11:49:49;26.10;1.00
12438;DHT22;6283;51.330;12.374;2022-10-17T11:52:38;26.20;1.00
12438;DHT22;6283;51.330;12.374;2022-10-17T11:55:26;26.40;1.00
12438;DHT22;6283;51.330;12.374;2022-10-17T12:06:15;27.60;1.00
12438;DHT22;6283;51.330;12.374;2022-10-17T12:08:53;27.70;1.00
12438;DHT22;6283;51.330;12.374;2022-10-17T12:17:00;27.80;1.00
12438;DHT22;6283;51.330;12.374;2022-10-17T12:19:34;27.90;1.00
12438;DHT22;6283;51.330;12.374;2022-10-17T12:32:37;28.10;1.00
12438;DHT22;6283;51.330;12.374;2022-10-17T12:35:21;28.00;1.00
12438;DHT22;6283;51.330;12.374;2022-10-17T12:43:01;27.70;1.00
12438;DHT22;6283;51.330;12.374;2022-10-17T12:48:44;28.10;1.00
12438;DHT22;6283;51.330;12.374;2022-10-17T12:54:06;28.30;1.00
12438;DHT22;6283;51.330;12.374;2022-10-17T12:56:39;28.50;1.00
12438;DHT22;6283;51.330;12.374;2022-10-17T12:59:24;28.60;1.00
12438;DHT22;6283;51.330;12.374;2022-10-17T13:01:53;28.60;1.00
12438;DHT22;6283;51.330;12.374;2022-10-17T13:04:21;28.50;1.00
12438;DHT22;6283;51.330;12.374;2022-10-17T13:06:51;28.60;1.00
12438;DHT22;6283;51.330;12.374;2022-10-17T13:09:34;28.70;1.00
12438;DHT22;6283;51.330;12.374;2022-10-17T13:12:04;28.90;1.00
12438;DHT22;6283;51.330;12.374;2022-10-17T13:14:34;29.10;1.00
12438;DHT22;6283;51.330;12.374;2022-10-17T13:17:05;29.20;1.00
12438;DHT22;6283;51.330;12.374;2022-10-17T13:19:43;29.20;1.00
12438;DHT22;6283;51.330;12.374;2022-10-17T13:22:20;29.40;1.00
12438;DHT22;6283;51.330;12.374;2022-10-17T13:24:48;29.50;1.00
12438;DHT22;6283;51.330;12.374;2022-10-17T13:27:32;29.70;1.00
12438;DHT22;6283;51.330;12.374;2022-10-17T13:29:59;29.90;1.00
12438;DHT22;6283;51.330;12.374;2022-10-17T13:32:34;30.10;1.00
12438;DHT22;6283;51.330;12.374;2022-10-17T13:35:14;30.20;1.00
12438;DHT22;6283;51.330;12.374;2022-10-17T13:37:42;30.30;1.00
12438;DHT22;6283;51.330;12.374;2022-10-17T13:40:17;30.40;1.00
12438;DHT22;6283;51.330;12.374;2022-10-17T13:42:44;30.60;1.00
12438;DHT22;6283;51.330;12.374;2022-10-17T13:45:23;30.80;1.00
12438;DHT22;6283;51.330;12.374;2022-10-17T13:47:50;31.00;1.00
12438;DHT22;6283;51.330;12.374;2022-10-17T13:50:23;31.20;1.00
12438;DHT22;6283;51.330;12.374;2022-10-17T13:53:05;31.20;1.00
12438;DHT22;6283;51.330;12.374;2022-10-17T13:55:30;31.30;1.00
12438;DHT22;6283;51.330;12.374;2022-10-17T13:58:09;31.30;1.00
12438;DHT22;6283;51.330;12.374;2022-10-17T14:00:34;31.40;1.00
12438;DHT22;6283;51.330;12.374;2022-10-17T14:03:00;31.50;1.00
12438;DHT22;6283;51.330;12.374;2022-10-17T14:05:26;31.60;1.00
12438;DHT22;6283;51.330;12.374;2022-10-17T14:07:58;31.80;1.00
12438;DHT22;6283;51.330;12.374;2022-10-17T14:10:31;32.00;1.00
12438;DHT22;6283;51.330;12.374;2022-10-17T14:12:59;32.20;1.00
12438;DHT22;6283;51.330;12.374;2022-10-17T14:15:28;32.20;1.00
12438;DHT22;6283;51.330;12.374;2022-10-17T14:18:00;32.20;1.00
12438;DHT22;6283;51.330;12.374;2022-10-17T14:20:26;32.00;1.00
12438;DHT22;6283;51.330;12.374;2022-10-17T14:22:54;32.00;1.00
12438;DHT22;6283;51.330;12.374;2022-10-17T14:25:34;31.90;1.00
12438;DHT22;6283;51.330;12.374;2022-10-17T14:30:36;31.70;1.00
12438;DHT22;6283;51.330;12.374;2022-10-17T14:33:06;31.70;1.00
12438;DHT22;6283;51.330;12.374;2022-10-17T14:35:32;31.60;1.00
12438;DHT22;6283;51.330;12.374;2022-10-17T14:38:03;31.30;1.00
12438;DHT22;6283;51.330;12.374;2022-10-17T14:40:31;31.30;1.00
12438;DHT22;6283;51.330;12.374;2022-10-17T14:42:59;31.20;1.00
12438;DHT22;6283;51.330;12.374;2022-10-17T14:45:37;31.30;1.00
12438;DHT22;6283;51.330;12.374;2022-10-17T14:48:14;31.30;1.00
12438;DHT22;6283;51.330;12.374;2022-10-17T14:50:41;31.40;1.00
12438;DHT22;6283;51.330;12.374;2022-10-17T14:55:38;31.40;1.00
12438;DHT22;6283;51.330;12.374;2022-10-17T14:58:18;31.40;1.00
12438;DHT22;6283;51.330;12.374;2022-10-17T15:00:45;31.20;1.00
12438;DHT22;6283;51.330;12.374;2022-10-17T15:03:11;31.00;1.00
12438;DHT22;6283;51.330;12.374;2022-10-17T15:05:38;30.90;1.00
12438;DHT22;6283;51.330;12.374;2022-10-17T15:08:08;30.80;1.00
12438;DHT22;6283;51.330;12.374;2022-10-17T15:10:36;30.70;1.00
12438;DHT22;6283;51.330;12.374;2022-10-17T15:13:02;30.60;1.00
12438;DHT22;6283;51.330;12.374;2022-10-17T15:15:29;30.60;1.00
12438;DHT22;6283;51.330;12.374;2022-10-17T15:17:54;30.40;1.00
12438;DHT22;6283;51.330;12.374;2022-10-17T15:20:20;30.40;1.00
12438;DHT22;6283;51.330;12.374;2022-10-17T15:22:51;30.50;1.00
12438;DHT22;6283;51.330;12.374;2022-10-17T15:25:17;30.50;1.00
12438;DHT22;6283;51.330;12.374;2022-10-17T15:27:42;30.40;1.00
12438;DHT22;6283;51.330;12.374;2022-10-17T15:30:25;30.30;1.00
12438;DHT22;6283;51.330;12.374;2022-10-17T15:32:52;30.10;1.00
12438;DHT22;6283;51.330;12.374;2022-10-17T15:35:18;29.90;1.00
12438;DHT22;6283;51.330;12.374;2022-10-17T15:37:44;29.80;1.00
12438;DHT22;6283;51.330;12.374;2022-10-17T15:40:21;29.60;1.00
12438;DHT22;6283;51.330;12.374;2022-10-17T15:42:47;29.30;1.00
12438;DHT22;6283;51.330;12.374;2022-10-17T15:45:14;29.10;1.00
12438;DHT22;6283;51.330;12.374;2022-10-17T15:47:42;29.00;1.00
12438;DHT22;6283;51.330;12.374;2022-10-17T15:50:13;28.80;1.00
12438;DHT22;6283;51.330;12.374;2022-10-17T15:52:39;28.50;1.00
12438;DHT22;6283;51.330;12.374;2022-10-17T15:55:07;28.40;1.00
12438;DHT22;6283;51.330;12.374;2022-10-17T15:57:35;28.20;1.00
12438;DHT22;6283;51.330;12.374;2022-10-17T16:00:05;28.10;1.00
12438;DHT22;6283;51.330;12.374;2022-10-17T16:02:31;27.90;1.00
12438;DHT22;6283;51.330;12.374;2022-10-17T16:04:58;27.60;1.00
12438;DHT22;6283;51.330;12.374;2022-10-17T16:07:23;27.40;1.00
12438;DHT22;6283;51.330;12.374;2022-10-17T16:09:49;27.10;1.00
12438;DHT22;6283;51.330;12.374;2022-10-17T16:12:21;26.90;1.00
12438;DHT22;6283;51.330;12.374;2022-10-17T16:14:49;26.60;1.00
12438;DHT22;6283;51.330;12.374;2022-10-17T16:17:15;26.40;1.00
12438;DHT22;6283;51.330;12.374;2022-10-17T16:19:41;26.20;1.00
12438;DHT22;6283;51.330;12.374;2022-10-17T16:22:17;26.10;1.00
12438;DHT22;6283;51.330;12.374;2022-10-17T16:24:44;25.90;1.00
12438;DHT22;6283;51.330;12.374;2022-10-17T16:27:09;25.70;1.00
12438;DHT22;6283;51.330;12.374;2022-10-17T16:29:35;25.60;1.00
12438;DHT22;6283;51.330;12.374;2022-10-17T16:32:00;25.40;1.00
12438;DHT22;6283;51.330;12.374;2022-10-17T16:34:26;25.30;1.00
12438;DHT22;6283;51.330;12.374;2022-10-17T16:36:52;25.10;1.00
12438;DHT22;6283;51.330;12.374;2022-10-17T16:39:17;25.00;1.00
12438;DHT22;6283;51.330;12.374;2022-10-17T16:41:43;24.90;1.00
12438;DHT22;6283;51.330;12.374;2022-10-17T16:44:11;24.80;1.00
12438;DHT22;6283;51.330;12.374;2022-10-17T16:46:40;24.60;1.00
12438;DHT22;6283;51.330;12.374;2022-10-17T16:49:06;24.50;1.00
12438;DHT22;6283;51.330;12.374;2022-10-17T16:51:32;24.30;1.00
12438;DHT22;6283;51.330;12.374;2022-10-17T16:54:00;24.20;1.00
12438;DHT22;6283;51.330;12.374;2022-10-17T16:56:26;24.10;1.00
12438;DHT22;6283;51.330;12.374;2022-10-17T16:58:57;24.00;1.00
12438;DHT22;6283;51.330;12.374;2022-10-17T17:01:24;24.00;1.00
12438;DHT22;6283;51.330;12.374;2022-10-17T17:03:50;23.90;1.00
12438;DHT22;6283;51.330;12.374;2022-10-17T17:06:22;23.80;1.00
12438;DHT22;6283;51.330;12.374;2022-10-17T17:08:49;23.70;1.00
12438;DHT22;6283;51.330;12.374;2022-10-17T17:11:16;23.70;1.00
12438;DHT22;6283;51.330;12.374;2022-10-17T17:13:42;23.60;1.00
12438;DHT22;6283;51.330;12.374;2022-10-17T17:16:13;23.50;1.00
12438;DHT22;6283;51.330;12.374;2022-10-17T17:18:40;23.40;1.00
12438;DHT22;6283;51.330;12.374;2022-10-17T17:21:07;23.30;1.00
12438;DHT22;6283;51.330;12.374;2022-10-17T17:23:35;23.20;1.00
12438;DHT22;6283;51.330;12.374;2022-10-17T17:26:06;23.00;1.00
12438;DHT22;6283;51.330;12.374;2022-10-17T17:28:33;22.90;1.00
12438;DHT22;6283;51.330;12.374;2022-10-17T17:30:59;22.80;1.00
12438;DHT22;6283;51.330;12.374;2022-10-17T17:33:25;22.60;1.00
12438;DHT22;6283;51.330;12.374;2022-10-17T17:36:00;22.50;1.00
12438;DHT22;6283;51.330;12.374;2022-10-17T17:38:30;22.50;1.00
12438;DHT22;6283;51.330;12.374;2022-10-17T17:40:56;22.40;1.00
12438;DHT22;6283;51.330;12.374;2022-10-17T17:43:22;22.30;1.00
12438;DHT22;6283;51.330;12.374;2022-10-17T17:46:00;22.10;1.00
12438;DHT22;6283;51.330;12.374;2022-10-17T17:48:26;22.00;1.00
12438;DHT22;6283;51.330;12.374;2022-10-17T17:50:52;21.90;1.00
12438;DHT22;6283;51.330;12.374;2022-10-17T17:53:17;21.80;1.00
12438;DHT22;6283;51.330;12.374;2022-10-17T17:55:43;21.70;1.00
12438;DHT22;6283;51.330;12.374;2022-10-17T17:58:09;21.60;1.00
12438;DHT22;6283;51.330;12.374;2022-10-17T18:00:37;21.60;1.00